Time;durP1;ratioP1;P1;durP2;ratioP2;P2;SDS_P1;SDS_P2;PMS_P1;PMS_P2;Temp;Humidity;BMP_temperature;BMP_pressure;BME280_temperature;BME280_humidity;BME280_pressure;Samples;Min_cycle;Max_cycle;Signal;HPM_P1;HPM_P2
2023/12/09 00:00:00;;;;;;;9.40;5.80;;;;;;;11.71;59.46;100535.31;672803;29;1486;-93
2023/12/09 00:00:21;;;;;;;9.00;5.93;;;;;;;11.73;59.42;100549.31;675520;29;1321;-93
2023/12/09 00:00:42;;;;;;;9.48;6.07;;;;;;;11.74;59.43;100536.25;668654;29;1227;-93
2023/12/09 00:01:03;;;;;;;9.10;6.22;;;;;;;11.65;59.66;100523.91;665193;29;1210;-93
2023/12/09 00:01:24;;;;;;;10.40;6.50;;;;;;;11.73;59.18;100531.88;672947;29;1055;-93
2023/12/09 00:01:44;;;;;;;12.43;6.30;;;;;;;11.76;59.37;100537.19;674526;29;1338;-94
2023/12/09 00:02:05;;;;;;;14.80;6.40;;;;;;;11.82;59.50;100553.81;675420;29;1067;-93
2023/12/09 00:02:26;;;;;;;13.05;5.88;;;;;;;11.84;59.46;100552.09;672926;29;1189;-93
2023/12/09 00:02:46;;;;;;;11.95;6.00;;;;;;;11.73;59.15;100529.25;675789;29;1452;-93
2023/12/09 00:03:08;;;;;;;9.98;5.82;;;;;;;11.74;59.25;100546.72;672752;29;1149;-93
2023/12/09 00:03:29;;;;;;;10.98;5.90;;;;;;;11.74;59.33;100535.38;672605;29;1242;-94
2023/12/09 00:03:50;;;;;;;12.35;5.70;;;;;;;11.74;59.36;100532.78;672556;29;1328;-94
2023/12/09 00:04:11;;;;;;;11.82;5.65;;;;;;;11.78;59.40;100531.97;675257;29;1341;-93
2023/12/09 00:04:31;;;;;;;10.90;5.60;;;;;;;11.83;59.36;100545.13;672327;29;1278;-92
2023/12/09 00:04:52;;;;;;;8.40;5.85;;;;;;;11.85;59.15;100543.44;675519;29;1351;-93
2023/12/09 00:05:13;;;;;;;9.13;6.33;;;;;;;11.78;59.26;100535.47;672874;29;1260;-93
2023/12/09 00:05:35;;;;;;;9.15;6.32;;;;;;;11.79;59.05;100542.47;672715;29;1239;-93
2023/12/09 00:05:56;;;;;;;10.00;5.90;;;;;;;11.74;59.01;100528.41;670356;29;1230;-93
2023/12/09 00:06:21;;;;;;;13.48;5.90;;;;;;;11.77;59.14;100536.34;675607;29;1455;-93
2023/12/09 00:06:49;;;;;;;14.52;5.80;;;;;;;11.78;59.09;100538.09;672729;29;1212;-94
2023/12/09 00:07:09;;;;;;;9.88;5.45;;;;;;;11.75;59.11;100538.00;672794;29;1139;-93
2023/12/09 00:07:30;;;;;;;8.75;5.32;;;;;;;11.81;58.99;100549.44;675250;29;1253;-93
2023/12/09 00:07:51;;;;;;;7.45;5.28;;;;;;;11.76;58.99;100549.38;667632;29;1183;-93
2023/12/09 00:08:11;;;;;;;7.90;5.30;;;;;;;11.74;58.93;100541.47;672816;29;1256;-93
2023/12/09 00:08:34;;;;;;;14.45;5.53;;;;;;;11.78;58.97;100552.88;667449;29;1168;-93
2023/12/09 00:08:54;;;;;;;16.52;5.90;;;;;;;11.70;59.23;100560.59;667713;29;1200;-94
2023/12/09 00:09:18;;;;;;;18.13;5.78;;;;;;;11.65;59.58;100542.19;665273;29;1240;-93
2023/12/09 00:09:39;;;;;;;13.27;5.78;;;;;;;11.69;59.33;100545.75;667512;29;1138;-92
2023/12/09 00:09:59;;;;;;;12.60;5.50;;;;;;;11.60;59.41;100540.28;670427;29;1162;-93
2023/12/09 00:10:20;;;;;;;9.80;5.40;;;;;;;11.60;59.54;100537.69;667484;29;1112;-94
2023/12/09 00:10:41;;;;;;;8.95;5.30;;;;;;;11.68;59.33;100550.94;673865;29;1264;-93
2023/12/09 00:11:01;;;;;;;11.27;5.78;;;;;;;11.63;59.48;100537.75;675381;29;1271;-93
2023/12/09 00:11:22;;;;;;;12.13;6.00;;;;;;;11.66;59.55;100543.06;667607;29;1294;-93
2023/12/09 00:11:43;;;;;;;12.97;6.00;;;;;;;11.68;59.55;100543.09;667364;29;1370;-93
2023/12/09 00:12:05;;;;;;;10.48;5.78;;;;;;;11.68;59.39;100543.97;667761;29;1324;-92
2023/12/09 00:12:25;;;;;;;14.00;6.13;;;;;;;11.62;59.51;100546.44;667597;29;1297;-93
2023/12/09 00:12:48;;;;;;;15.60;6.10;;;;;;;11.69;59.29;100548.38;672198;29;1314;-93
2023/12/09 00:13:08;;;;;;;15.15;5.93;;;;;;;11.59;59.38;100562.06;675339;29;1274;-92
2023/12/09 00:13:32;;;;;;;11.48;5.38;;;;;;;11.66;59.38;100553.53;672867;29;1172;-93
2023/12/09 00:13:52;;;;;;;10.80;5.90;;;;;;;11.72;59.49;100555.38;667849;29;1114;-93
2023/12/09 00:14:13;;;;;;;11.35;6.15;;;;;;;11.73;59.34;100555.41;667762;29;1348;-93
2023/12/09 00:14:34;;;;;;;11.18;6.10;;;;;;;11.75;59.53;100558.94;670230;29;1074;-93
2023/12/09 00:14:56;;;;;;;10.80;5.78;;;;;;;11.70;59.63;100567.53;670169;29;1295;-94
2023/12/09 00:15:17;;;;;;;10.18;5.40;;;;;;;11.72;59.49;100552.75;667885;29;1208;-93
2023/12/09 00:15:37;;;;;;;10.95;5.50;;;;;;;11.70;59.41;100544.91;669477;29;1233;-93
2023/12/09 00:15:59;;;;;;;12.52;5.72;;;;;;;11.67;59.46;100539.59;670167;29;1254;-94
2023/12/09 00:16:19;;;;;;;11.13;5.47;;;;;;;11.73;59.25;100550.19;665174;29;1209;-93
2023/12/09 00:16:40;;;;;;;11.20;5.70;;;;;;;11.74;59.38;100545.84;673707;29;1306;-93
2023/12/09 00:17:01;;;;;;;9.80;5.63;;;;;;;11.68;59.19;100538.75;675520;29;1270;-93
2023/12/09 00:17:22;;;;;;;11.17;5.73;;;;;;;11.74;59.28;100544.09;675373;29;1178;-93
2023/12/09 00:17:43;;;;;;;15.03;6.00;;;;;;;11.73;59.46;100549.31;674042;29;1303;-94
2023/12/09 00:18:03;;;;;;;13.65;6.07;;;;;;;11.82;59.18;100556.44;675357;29;1124;-93
2023/12/09 00:18:24;;;;;;;12.15;5.95;;;;;;;11.74;59.37;100546.72;672670;29;1207;-93
2023/12/09 00:18:45;;;;;;;12.45;5.90;;;;;;;11.82;59.30;100559.94;670253;29;1141;-94
2023/12/09 00:19:07;;;;;;;15.23;5.75;;;;;;;11.70;59.27;100544.91;669553;29;1975;-94
2023/12/09 00:19:28;;;;;;;16.45;6.20;;;;;;;11.78;59.40;100558.09;670034;29;1152;-93
2023/12/09 00:19:48;;;;;;;15.70;5.87;;;;;;;11.69;59.33;100537.03;673006;29;1217;-93
2023/12/09 00:20:13;;;;;;;14.15;5.90;;;;;;;11.72;59.03;100542.28;670290;29;1358;-93
2023/12/09 00:20:34;;;;;;;14.48;5.93;;;;;;;11.73;59.41;100555.41;672804;29;1550;-94
2023/12/09 00:20:54;;;;;;;10.23;5.60;;;;;;;11.72;59.48;100552.75;672845;29;1175;-94
2023/12/09 00:21:15;;;;;;;8.57;5.33;;;;;;;11.72;59.44;100556.25;672849;29;1231;-92
2023/12/09 00:21:36;;;;;;;9.40;5.20;;;;;;;11.71;59.53;100551.00;669947;29;1195;-94
2023/12/09 00:21:57;;;;;;;10.80;5.55;;;;;;;11.70;59.40;100564.91;672664;29;1535;-92
2023/12/09 00:22:17;;;;;;;10.88;5.50;;;;;;;11.71;59.29;100551.88;672556;29;1214;-93
2023/12/09 00:22:39;;;;;;;9.20;5.40;;;;;;;11.63;59.66;100556.06;672655;29;1211;-92
2023/12/09 00:22:59;;;;;;;9.05;5.22;;;;;;;11.64;59.63;100543.03;670417;29;1384;-94
2023/12/09 00:23:20;;;;;;;8.38;5.00;;;;;;;11.64;59.59;100547.34;672843;29;1279;-94
2023/12/09 00:23:41;;;;;;;10.43;5.20;;;;;;;11.59;59.40;100535.91;672621;29;1311;-94
2023/12/09 00:24:02;;;;;;;12.73;5.32;;;;;;;11.73;59.29;100557.16;670324;29;1162;-93
2023/12/09 00:24:22;;;;;;;13.75;5.60;;;;;;;11.65;59.24;100538.69;672694;29;1248;-94
2023/12/09 00:24:44;;;;;;;11.20;5.60;;;;;;;11.69;59.44;100553.59;667786;29;1327;-93
2023/12/09 00:25:06;;;;;;;14.05;5.30;;;;;;;11.68;59.17;100554.41;667796;29;1278;-93
2023/12/09 00:25:27;;;;;;;14.05;5.13;;;;;;;11.68;59.09;100545.72;667707;29;1290;-94
2023/12/09 00:25:48;;;;;;;14.45;5.05;;;;;;;11.64;59.28;100544.75;670233;29;1255;-93
2023/12/09 00:26:08;;;;;;;8.80;5.15;;;;;;;11.67;59.34;100550.06;662663;29;1276;-94
2023/12/09 00:26:30;;;;;;;11.60;5.00;;;;;;;11.65;59.43;100546.53;667371;29;1281;-94
2023/12/09 00:26:51;;;;;;;12.20;4.90;;;;;;;11.64;59.20;100547.34;670431;29;1321;-93
2023/12/09 00:27:12;;;;;;;11.48;4.80;;;;;;;11.70;59.25;100549.22;672683;29;1152;-94
2023/12/09 00:27:34;;;;;;;10.65;5.43;;;;;;;11.63;59.13;100543.84;667420;29;1204;-94
2023/12/09 00:27:55;;;;;;;11.65;5.68;;;;;;;11.60;59.22;100548.13;667732;29;1357;-93
2023/12/09 00:28:15;;;;;;;10.00;5.50;;;;;;;11.55;59.12;100547.16;675228;29;1338;-94
2023/12/09 00:28:36;;;;;;;9.90;4.95;;;;;;;11.60;59.01;100553.34;672702;29;1355;-94
2023/12/09 00:28:57;;;;;;;7.95;4.90;;;;;;;11.59;59.31;100562.06;670008;29;1451;-93
2023/12/09 00:29:17;;;;;;;8.75;4.82;;;;;;;11.40;59.22;100538.16;672225;29;1800;-94
2023/12/09 00:29:38;;;;;;;8.20;4.97;;;;;;;11.39;59.50;100554.69;677655;29;1272;-94
2023/12/09 00:29:59;;;;;;;9.68;5.00;;;;;;;11.43;59.63;100556.50;670175;29;1323;-94
2023/12/09 00:30:21;;;;;;;8.95;5.07;;;;;;;11.43;59.63;100553.91;670246;29;1100;-93
2023/12/09 00:30:41;;;;;;;12.30;5.10;;;;;;;11.39;59.43;100544.25;673910;29;1333;-93
2023/12/09 00:31:02;;;;;;;11.20;5.07;;;;;;;11.43;59.56;100551.28;672864;29;1099;-94
2023/12/09 00:31:23;;;;;;;9.95;4.90;;;;;;;11.48;59.44;100560.09;675353;29;1231;-93
2023/12/09 00:31:44;;;;;;;9.17;4.90;;;;;;;11.45;59.35;100553.94;673737;29;1169;-94
2023/12/09 00:32:05;;;;;;;10.50;4.80;;;;;;;11.43;59.42;100555.66;667509;29;1451;-93
2023/12/09 00:32:25;;;;;;;11.65;4.70;;;;;;;11.46;59.41;100556.59;670259;29;1297;-93
2023/12/09 00:32:46;;;;;;;10.43;4.60;;;;;;;11.46;59.51;100553.97;674629;29;1462;-93
2023/12/09 00:33:08;;;;;;;9.20;4.60;;;;;;;11.42;59.63;100554.75;672618;29;1351;-94
2023/12/09 00:33:29;;;;;;;10.15;5.20;;;;;;;11.46;59.26;100555.69;670101;29;1365;-93
2023/12/09 00:33:50;;;;;;;9.70;5.38;;;;;;;11.40;59.17;100546.00;673139;29;1168;-93
2023/12/09 00:34:10;;;;;;;9.80;5.30;;;;;;;11.42;59.57;100548.66;672801;29;1340;-94
2023/12/09 00:34:31;;;;;;;8.90;4.90;;;;;;;11.44;59.67;100553.03;670104;29;1291;-94
2023/12/09 00:34:52;;;;;;;8.73;4.93;;;;;;;11.47;59.33;100552.22;670278;29;1271;-93
2023/12/09 00:35:13;;;;;;;11.60;5.30;;;;;;;11.46;59.27;100561.81;672846;29;1207;-93
2023/12/09 00:35:34;;;;;;;10.63;5.32;;;;;;;11.46;59.38;100555.69;670010;29;1106;-93
2023/12/09 00:35:55;;;;;;;9.00;4.97;;;;;;;11.49;59.44;100556.63;670897;29;1605;-93
2023/12/09 00:36:16;;;;;;;9.10;4.72;;;;;;;11.54;59.40;100561.09;672877;29;1211;-93
2023/12/09 00:36:37;;;;;;;9.18;4.70;;;;;;;11.49;59.39;100545.31;673080;29;1291;-94
2023/12/09 00:36:57;;;;;;;9.10;4.82;;;;;;;11.51;59.34;100554.94;672654;29;1262;-93
2023/12/09 00:37:18;;;;;;;7.28;4.78;;;;;;;11.56;59.38;100556.78;671720;29;1229;-93
2023/12/09 00:37:41;;;;;;;7.33;4.63;;;;;;;11.49;59.58;100547.94;676961;29;1262;-93
2023/12/09 00:38:02;;;;;;;6.75;4.60;;;;;;;11.50;59.52;100542.72;667755;29;1453;-93
2023/12/09 00:38:22;;;;;;;6.68;4.63;;;;;;;11.49;59.53;100535.72;672629;29;1288;-93
2023/12/09 00:38:43;;;;;;;7.88;4.60;;;;;;;11.64;59.60;100557.81;669982;29;1220;-94
2023/12/09 00:39:05;;;;;;;8.80;4.60;;;;;;;11.59;59.55;100552.50;670109;29;1915;-92
2023/12/09 00:39:25;;;;;;;11.00;4.75;;;;;;;11.57;59.58;100550.69;672642;29;1122;-94
2023/12/09 00:39:46;;;;;;;9.68;4.80;;;;;;;11.60;59.38;100551.63;672651;29;1207;-93
2023/12/09 00:40:07;;;;;;;11.27;5.18;;;;;;;11.65;59.19;100547.44;675169;29;1312;-93
2023/12/09 00:40:28;;;;;;;10.13;5.22;;;;;;;11.65;59.22;100557.00;669882;29;1318;-94
2023/12/09 00:40:49;;;;;;;9.90;5.15;;;;;;;11.70;59.44;100555.34;667744;29;1325;-93
2023/12/09 00:41:09;;;;;;;10.40;4.97;;;;;;;11.70;59.42;100552.75;672761;29;1379;-93
2023/12/09 00:41:30;;;;;;;9.50;4.70;;;;;;;11.66;59.61;100545.69;669842;29;1269;-93
2023/12/09 00:41:51;;;;;;;9.88;4.68;;;;;;;11.75;59.25;100552.84;670228;29;1110;-93
2023/12/09 00:42:12;;;;;;;7.70;4.43;;;;;;;11.74;59.43;100561.53;675284;29;1219;-93
2023/12/09 00:42:33;;;;;;;9.10;4.80;;;;;;;11.62;59.47;100541.22;669991;29;1327;-93
2023/12/09 00:42:54;;;;;;;11.30;5.03;;;;;;;11.70;59.32;100552.75;667580;29;1209;-92
2023/12/09 00:43:14;;;;;;;10.80;4.90;;;;;;;11.70;59.26;100550.13;667776;29;1228;-92
2023/12/09 00:43:35;;;;;;;10.27;4.82;;;;;;;11.76;59.12;100555.47;670013;29;1322;-94
2023/12/09 00:43:56;;;;;;;8.13;4.93;;;;;;;11.74;59.21;100561.53;670138;29;1199;-93
2023/12/09 00:44:20;;;;;;;9.40;5.00;;;;;;;11.75;59.53;100561.53;670186;29;1235;-92
2023/12/09 00:44:42;;;;;;;9.48;4.65;;;;;;;11.72;59.15;100551.03;670044;29;1383;-94
2023/12/09 00:45:03;;;;;;;8.15;4.63;;;;;;;11.69;59.33;100552.69;670128;29;1323;-93
2023/12/09 00:45:25;;;;;;;8.35;4.60;;;;;;;11.70;59.41;100552.75;670109;29;1318;-93
2023/12/09 00:45:46;;;;;;;10.52;5.05;;;;;;;11.75;59.13;100564.16;671767;29;1363;-93
2023/12/09 00:46:07;;;;;;;9.57;4.88;;;;;;;11.65;59.55;100552.66;675017;29;1345;-94
2023/12/09 00:46:27;;;;;;;12.63;5.18;;;;;;;11.75;59.31;100558.06;672501;29;1118;-93
2023/12/09 00:46:48;;;;;;;10.90;5.10;;;;;;;11.72;59.37;100557.97;672433;29;1167;-94
2023/12/09 00:47:09;;;;;;;16.88;5.68;;;;;;;11.74;59.10;100559.78;677314;29;1251;-94
2023/12/09 00:47:30;;;;;;;15.75;5.22;;;;;;;11.64;59.45;100548.25;675175;29;1389;-93
2023/12/09 00:47:51;;;;;;;14.15;4.80;;;;;;;11.76;59.79;100565.03;675348;29;1285;-93
2023/12/09 00:48:12;;;;;;;8.38;4.40;;;;;;;11.77;59.45;100566.81;672741;29;1381;-93
2023/12/09 00:48:33;;;;;;;8.63;4.93;;;;;;;11.73;59.24;100565.88;675290;29;1169;-93
2023/12/09 00:48:54;;;;;;;11.57;5.50;;;;;;;11.74;59.38;100554.56;677452;29;1290;-94
2023/12/09 00:49:14;;;;;;;14.33;5.60;;;;;;;11.77;59.37;100554.63;672622;29;1259;-93
2023/12/09 00:49:35;;;;;;;13.23;5.35;;;;;;;11.82;59.27;100561.66;669269;29;1266;-93
2023/12/09 00:49:56;;;;;;;11.48;5.10;;;;;;;11.75;59.54;100558.06;669469;29;1332;-93
2023/12/09 00:50:17;;;;;;;10.10;5.00;;;;;;;11.77;59.54;100552.00;667508;29;1348;-93
2023/12/09 00:50:37;;;;;;;9.52;4.80;;;;;;;11.74;59.52;100551.94;673139;29;1335;-93
2023/12/09 00:50:58;;;;;;;9.85;4.75;;;;;;;11.74;59.19;100554.56;670187;29;1316;-93
2023/12/09 00:51:19;;;;;;;8.70;4.45;;;;;;;11.89;59.08;100571.41;667631;29;1179;-93
2023/12/09 00:51:40;;;;;;;8.07;4.22;;;;;;;11.84;59.06;100562.56;667329;29;1168;-93
2023/12/09 00:52:00;;;;;;;6.85;4.28;;;;;;;11.85;59.10;100559.13;667371;29;1487;-94
2023/12/09 00:52:21;;;;;;;6.93;4.40;;;;;;;11.83;59.14;100563.44;667648;29;1334;-92
2023/12/09 00:52:42;;;;;;;7.35;4.78;;;;;;;11.84;59.31;100566.06;670031;29;1256;-94
2023/12/09 00:53:02;;;;;;;7.07;4.60;;;;;;;11.83;59.16;100556.47;670129;29;1112;-93
2023/12/09 00:53:23;;;;;;;7.00;4.70;;;;;;;11.84;59.41;100563.47;670195;29;1183;-94
2023/12/09 00:53:44;;;;;;;5.97;4.20;;;;;;;11.87;58.87;100563.50;673926;29;1310;-93
2023/12/09 00:54:05;;;;;;;8.02;4.90;;;;;;;11.88;58.98;100564.41;675383;29;1278;-93
2023/12/09 00:54:25;;;;;;;8.80;5.13;;;;;;;11.86;58.96;100559.13;672645;29;1183;-94
2023/12/09 00:54:46;;;;;;;8.25;5.20;;;;;;;11.78;59.05;100553.78;672555;29;1186;-93
2023/12/09 00:55:07;;;;;;;7.20;4.68;;;;;;;11.80;59.19;100553.78;675263;29;1173;-93
2023/12/09 00:55:28;;;;;;;6.65;4.40;;;;;;;11.86;59.07;100568.72;675246;29;1291;-93
2023/12/09 00:55:49;;;;;;;9.45;4.68;;;;;;;11.84;58.90;100557.34;673002;29;1338;-92
2023/12/09 00:56:09;;;;;;;9.60;4.90;;;;;;;11.79;59.00;100560.75;670302;29;1171;-93
2023/12/09 00:56:30;;;;;;;11.85;5.22;;;;;;;11.76;59.10;100559.81;672430;29;1229;-93
2023/12/09 00:56:51;;;;;;;9.43;5.00;;;;;;;11.81;59.14;100559.91;672105;29;1317;-93
2023/12/09 00:57:12;;;;;;;9.15;4.93;;;;;;;11.74;59.12;100572.84;670124;29;1198;-93
2023/12/09 00:57:33;;;;;;;7.60;4.60;;;;;;;11.68;59.18;100549.19;672484;29;1354;-93
2023/12/09 00:57:54;;;;;;;7.15;4.10;;;;;;;11.76;59.21;100565.94;670103;29;1383;-94
2023/12/09 00:58:14;;;;;;;7.35;4.10;;;;;;;11.73;59.35;100560.63;667609;29;1263;-94
2023/12/09 00:58:35;;;;;;;7.50;4.53;;;;;;;11.73;59.40;100565.00;667194;29;1316;-93
2023/12/09 00:58:56;;;;;;;8.37;5.10;;;;;;;11.72;59.28;100552.75;670205;29;1919;-93
2023/12/09 00:59:17;;;;;;;8.10;4.85;;;;;;;11.72;59.30;100563.22;670058;29;1307;-91
2023/12/09 00:59:37;;;;;;;7.28;4.50;;;;;;;11.72;59.28;100558.88;674044;29;1170;-92
2023/12/09 00:59:58;;;;;;;7.00;4.50;;;;;;;11.66;59.11;100558.75;670079;29;1344;-92
2023/12/09 01:00:19;;;;;;;8.20;4.70;;;;;;;11.65;59.37;100551.75;667665;29;1274;-93
2023/12/09 01:00:40;;;;;;;8.60;4.57;;;;;;;11.68;59.07;100551.81;665407;29;1306;-93
2023/12/09 01:01:00;;;;;;;9.05;4.43;;;;;;;11.68;59.13;100546.59;672929;29;1089;-93
2023/12/09 01:01:21;;;;;;;6.38;3.83;;;;;;;11.69;59.56;100561.44;675867;29;1211;-93
2023/12/09 01:01:42;;;;;;;6.20;3.90;;;;;;;11.70;59.14;100563.19;669152;29;1060;-93
2023/12/09 01:02:03;;;;;;;7.43;4.05;;;;;;;11.68;59.18;100554.41;675280;29;1366;-92
2023/12/09 01:02:23;;;;;;;10.60;4.50;;;;;;;11.70;59.06;100563.19;674633;29;1064;-93
2023/12/09 01:02:44;;;;;;;13.18;4.90;;;;;;;11.60;59.30;100550.75;672422;29;1282;-93
2023/12/09 01:03:05;;;;;;;13.85;4.60;;;;;;;11.67;59.59;100565.72;676623;29;1479;-92
2023/12/09 01:03:25;;;;;;;12.10;4.63;;;;;;;11.59;59.28;100549.88;673739;29;1136;-93
2023/12/09 01:03:46;;;;;;;11.20;4.20;;;;;;;11.61;59.19;100539.47;671887;29;1172;-92
2023/12/09 01:04:08;;;;;;;9.95;4.55;;;;;;;11.62;59.11;100562.13;671225;29;1124;-93
2023/12/09 01:04:28;;;;;;;10.70;4.38;;;;;;;11.67;59.45;100559.63;670634;29;1199;-93
2023/12/09 01:04:49;;;;;;;9.70;4.40;;;;;;;11.63;59.38;100550.81;670804;29;1290;-92
2023/12/09 01:05:11;;;;;;;8.20;4.15;;;;;;;11.66;59.37;100553.53;669473;29;1297;-91
2023/12/09 01:05:31;;;;;;;6.57;4.10;;;;;;;11.75;59.13;100569.38;671656;29;1151;-92
2023/12/09 01:05:52;;;;;;;7.07;4.30;;;;;;;11.72;59.53;100558.88;670806;29;1300;-91
2023/12/09 01:06:13;;;;;;;8.13;4.63;;;;;;;11.75;59.50;100572.00;671363;29;1458;-92
2023/12/09 01:06:34;;;;;;;7.63;4.75;;;;;;;11.61;59.38;100560.38;668825;29;1260;-92
2023/12/09 01:06:56;;;;;;;8.85;4.50;;;;;;;11.66;59.56;100558.75;671716;29;1273;-92
2023/12/09 01:07:17;;;;;;;7.10;3.97;;;;;;;11.72;59.63;100571.94;667731;29;1323;-93
2023/12/09 01:07:37;;;;;;;7.85;3.90;;;;;;;11.69;59.47;100566.66;672678;29;1233;-92
2023/12/09 01:07:58;;;;;;;8.05;4.32;;;;;;;11.76;59.73;100573.78;670368;29;1157;-92
2023/12/09 01:08:19;;;;;;;10.50;4.68;;;;;;;11.76;59.53;100565.03;670318;29;1200;-93
2023/12/09 01:08:40;;;;;;;11.32;4.32;;;;;;;11.76;59.49;100555.47;675573;29;1301;-93
2023/12/09 01:09:01;;;;;;;14.50;4.20;;;;;;;11.78;59.29;100555.50;674592;29;1139;-93
2023/12/09 01:09:22;;;;;;;14.98;4.32;;;;;;;11.82;59.55;100564.28;675392;29;1160;-92
2023/12/09 01:09:42;;;;;;;16.30;4.65;;;;;;;11.81;59.35;100559.91;678378;29;1094;-91
2023/12/09 01:10:05;;;;;;;14.40;4.70;;;;;;;11.78;59.29;100558.09;670933;29;1255;-92
2023/12/09 01:10:26;;;;;;;12.38;4.60;;;;;;;11.78;59.29;100561.63;674170;29;1360;-93
2023/12/09 01:10:47;;;;;;;8.88;4.32;;;;;;;11.85;59.51;100553.91;677784;29;1225;-93
2023/12/09 01:11:07;;;;;;;8.95;4.18;;;;;;;11.88;59.43;100564.41;673354;29;1144;-92
2023/12/09 01:11:28;;;;;;;8.65;4.20;;;;;;;11.85;59.29;100553.91;670016;29;1147;-92
2023/12/09 01:11:49;;;;;;;8.30;4.17;;;;;;;11.89;59.15;100558.31;672692;29;1248;-93
2023/12/09 01:12:10;;;;;;;8.00;4.07;;;;;;;11.83;59.11;100546.00;672952;29;1161;-93
2023/12/09 01:12:30;;;;;;;6.93;3.70;;;;;;;11.90;59.32;100560.06;672761;29;1211;-93
2023/12/09 01:12:51;;;;;;;5.45;3.58;;;;;;;11.87;59.05;100554.81;670266;29;1238;-93
2023/12/09 01:13:12;;;;;;;5.53;3.90;;;;;;;11.82;59.19;100559.06;669393;29;1168;-92
2023/12/09 01:13:33;;;;;;;6.77;4.17;;;;;;;11.86;59.21;100558.28;669987;29;1097;-93
2023/12/09 01:13:53;;;;;;;6.95;4.30;;;;;;;11.77;59.33;100546.78;667683;29;1263;-93
2023/12/09 01:14:14;;;;;;;8.98;4.07;;;;;;;11.78;59.07;100553.78;675391;29;1152;-94
2023/12/09 01:14:35;;;;;;;10.18;3.95;;;;;;;11.82;59.27;100553.81;672431;29;1247;-94
2023/12/09 01:14:56;;;;;;;10.57;3.70;;;;;;;11.77;59.19;100567.69;670306;29;1023;-92
2023/12/09 01:15:16;;;;;;;8.82;3.80;;;;;;;11.73;59.07;100560.63;672390;29;1347;-91
2023/12/09 01:15:37;;;;;;;8.33;3.73;;;;;;;11.76;59.48;100558.09;670191;29;1170;-94
2023/12/09 01:15:58;;;;;;;8.07;3.80;;;;;;;11.79;59.43;100568.59;670182;29;1282;-95
2023/12/09 01:16:19;;;;;;;8.02;3.75;;;;;;;11.79;59.07;100565.09;675272;29;1287;-92
2023/12/09 01:16:40;;;;;;;6.57;3.83;;;;;;;11.82;59.12;100569.50;672895;29;1268;-94
2023/12/09 01:17:01;;;;;;;7.55;3.97;;;;;;;11.83;59.23;100566.03;672836;29;1341;-93
2023/12/09 01:17:22;;;;;;;6.30;3.93;;;;;;;11.82;59.25;100556.44;672745;29;1252;-93
2023/12/09 01:17:42;;;;;;;7.47;4.15;;;;;;;11.80;59.28;100551.16;670166;29;1254;-93
2023/12/09 01:18:03;;;;;;;7.15;4.40;;;;;;;11.75;59.23;100551.06;669927;29;1203;-94
2023/12/09 01:18:24;;;;;;;9.63;4.60;;;;;;;11.83;59.26;100564.31;672663;29;1314;-93
2023/12/09 01:18:44;;;;;;;9.27;4.50;;;;;;;11.83;59.32;100566.03;669478;29;1292;-92
2023/12/09 01:19:05;;;;;;;8.73;4.07;;;;;;;11.83;59.44;100566.94;674806;29;1915;-92
2023/12/09 01:19:26;;;;;;;7.05;3.83;;;;;;;11.84;59.36;100560.84;674985;29;1215;-94
2023/12/09 01:19:47;;;;;;;6.53;3.80;;;;;;;11.92;59.21;100572.34;673544;29;1291;-93
2023/12/09 01:20:08;;;;;;;7.20;3.90;;;;;;;11.87;59.30;100570.50;675250;29;1185;-94
2023/12/09 01:20:29;;;;;;;6.45;3.85;;;;;;;11.91;59.27;100567.06;675092;29;1331;-94
2023/12/09 01:20:50;;;;;;;6.70;3.78;;;;;;;11.87;59.24;100554.81;670017;29;1283;-93
2023/12/09 01:21:10;;;;;;;8.30;4.00;;;;;;;11.92;59.32;100567.09;667699;29;1206;-94
2023/12/09 01:21:31;;;;;;;11.27;4.30;;;;;;;11.94;59.47;100564.53;667382;29;1169;-93
2023/12/09 01:21:52;;;;;;;11.10;4.35;;;;;;;11.88;59.14;100559.19;667915;29;1271;-92
2023/12/09 01:22:13;;;;;;;9.05;4.25;;;;;;;11.94;58.91;100564.53;672708;29;1202;-93
2023/12/09 01:22:33;;;;;;;7.70;4.00;;;;;;;11.89;59.12;100563.56;669564;29;1335;-92
2023/12/09 01:22:54;;;;;;;8.50;3.60;;;;;;;11.93;59.36;100560.16;672891;29;1277;-94
2023/12/09 01:23:15;;;;;;;7.93;3.70;;;;;;;11.88;59.25;100551.34;672546;29;1361;-94
2023/12/09 01:23:35;;;;;;;8.85;3.90;;;;;;;11.94;59.21;100569.75;672612;29;1354;-93
2023/12/09 01:23:56;;;;;;;7.32;4.07;;;;;;;11.94;59.37;100567.16;675426;29;1045;-93
2023/12/09 01:24:17;;;;;;;6.30;3.97;;;;;;;11.92;58.97;100560.97;672836;29;1167;-94
2023/12/09 01:24:38;;;;;;;5.80;3.70;;;;;;;12.03;59.06;100572.53;670006;29;1228;-93
2023/12/09 01:24:59;;;;;;;7.13;3.55;;;;;;;12.01;58.99;100571.66;672695;29;1357;-94
2023/12/09 01:25:20;;;;;;;8.00;3.72;;;;;;;11.99;59.04;100568.09;672760;29;1337;-94
2023/12/09 01:25:40;;;;;;;7.90;3.93;;;;;;;11.95;59.29;100562.78;672553;29;1277;-93
2023/12/09 01:26:01;;;;;;;8.07;4.43;;;;;;;12.01;59.34;100574.25;670208;29;1281;-93
2023/12/09 01:26:22;;;;;;;9.85;4.70;;;;;;;11.96;59.20;100561.91;672653;29;1314;-93
2023/12/09 01:26:42;;;;;;;12.90;4.50;;;;;;;12.02;59.14;100567.28;672260;29;1223;-93
2023/12/09 01:27:03;;;;;;;14.13;3.97;;;;;;;11.98;58.96;100560.25;669945;29;1374;-94
2023/12/09 01:27:24;;;;;;;11.85;3.55;;;;;;;11.95;58.98;100561.06;672405;29;1575;-94
2023/12/09 01:27:45;;;;;;;9.57;3.60;;;;;;;12.04;59.23;100576.06;670024;29;1391;-94
2023/12/09 01:28:06;;;;;;;8.02;3.63;;;;;;;12.05;59.12;100577.81;675147;29;1297;-93
2023/12/09 01:28:27;;;;;;;8.00;3.70;;;;;;;11.97;59.14;100554.13;669929;29;1374;-94
2023/12/09 01:28:48;;;;;;;7.85;3.70;;;;;;;12.05;58.83;100568.22;672492;29;1327;-93
2023/12/09 01:29:09;;;;;;;6.87;3.63;;;;;;;12.03;59.09;100567.31;672572;29;1238;-94
2023/12/09 01:29:29;;;;;;;9.85;3.67;;;;;;;12.03;58.95;100572.53;670001;29;1222;-94
2023/12/09 01:29:50;;;;;;;10.50;3.60;;;;;;;12.04;58.85;100563.84;670275;29;1278;-94
2023/12/09 01:30:11;;;;;;;10.52;3.80;;;;;;;12.04;58.99;100561.22;672584;29;1175;-94
2023/12/09 01:30:32;;;;;;;5.10;3.50;;;;;;;12.14;58.70;100583.22;670057;29;1270;-94
2023/12/09 01:30:53;;;;;;;6.15;3.78;;;;;;;12.06;58.74;100564.75;670051;29;1306;-94
2023/12/09 01:31:14;;;;;;;6.30;3.80;;;;;;;12.06;58.98;100575.19;675211;29;1232;-94
2023/12/09 01:31:35;;;;;;;7.30;4.05;;;;;;;12.10;58.94;100570.06;672566;29;1305;-93
2023/12/09 01:31:56;;;;;;;6.40;3.65;;;;;;;12.06;59.04;100562.13;674679;29;1505;-93
2023/12/09 01:32:16;;;;;;;8.63;3.75;;;;;;;12.11;58.77;100563.97;672666;29;1355;-93
2023/12/09 01:32:37;;;;;;;7.37;3.40;;;;;;;12.15;58.94;100578.84;672623;29;1304;-94
2023/12/09 01:32:58;;;;;;;8.00;3.40;;;;;;;12.10;58.89;100560.44;672676;29;1272;-94
2023/12/09 01:33:19;;;;;;;7.43;3.45;;;;;;;12.13;58.86;100559.63;672699;29;1248;-94
2023/12/09 01:33:41;;;;;;;7.38;3.60;;;;;;;12.06;58.83;100562.13;672499;29;1263;-94
2023/12/09 01:34:02;;;;;;;5.60;3.30;;;;;;;12.09;58.79;100568.28;668171;29;1344;-93
2023/12/09 01:34:23;;;;;;;6.55;3.15;;;;;;;12.04;59.00;100566.47;665043;29;1307;-95
2023/12/09 01:34:44;;;;;;;8.07;3.17;;;;;;;12.09;58.76;100571.78;669626;29;1446;-93
2023/12/09 01:35:05;;;;;;;9.02;3.78;;;;;;;12.06;59.05;100571.72;670074;29;1188;-94
2023/12/09 01:41:28;;;;;;;9.70;3.80;;;;;;;12.17;58.62;100567.56;678016;29;694;-95
2023/12/09 01:41:49;;;;;;;9.77;3.70;;;;;;;12.18;58.53;100578.91;677072;29;1341;-94
2023/12/09 01:42:10;;;;;;;7.18;3.30;;;;;;;12.15;58.60;100568.38;672611;29;1193;-94
2023/12/09 01:42:31;;;;;;;5.85;3.53;;;;;;;12.18;58.79;100573.69;672616;29;1308;-94
2023/12/09 01:42:52;;;;;;;6.32;3.80;;;;;;;12.18;58.66;100577.16;670269;29;1188;-94
2023/12/09 01:43:12;;;;;;;8.90;3.95;;;;;;;12.16;58.67;100578.03;675085;29;1200;-94
2023/12/09 01:43:34;;;;;;;10.27;3.90;;;;;;;12.12;58.84;100576.19;672106;29;1245;-93
2023/12/09 01:43:54;;;;;;;10.05;3.72;;;;;;;12.12;58.91;100584.94;670214;29;1275;-93
2023/12/09 01:44:15;;;;;;;7.90;3.60;;;;;;;12.10;59.15;100575.28;670243;29;1188;-94
2023/12/09 01:44:36;;;;;;;5.50;3.30;;;;;;;12.11;59.01;100582.28;670054;29;1243;-93
2023/12/09 01:44:56;;;;;;;5.38;3.35;;;;;;;12.11;58.94;100579.66;675326;29;1330;-95
2023/12/09 01:45:17;;;;;;;4.85;3.10;;;;;;;12.05;58.97;100569.97;675240;29;1345;-95